Time;durP1;ratioP1;P1;durP2;ratioP2;P2;SDS_P1;SDS_P2;PMS_P1;PMS_P2;Temp;Humidity;BMP_temperature;BMP_pressure;BME280_temperature;BME280_humidity;BME280_pressure;Samples;Min_cycle;Max_cycle;Signal;HPM_P1;HPM_P2
2022/05/23 00:02:02;;;;;;;1.60;1.33;;;;;;;;;;5015932;28;20022;-75
2022/05/23 00:04:27;;;;;;;3.25;1.58;;;;;;;;;;5030024;28;20034;-74
2022/05/23 00:06:55;;;;;;;2.97;1.45;;;;;;;;;;5018619;28;20041;-75
2022/05/23 00:09:20;;;;;;;2.63;1.55;;;;;;;;;;5029361;28;20025;-75
2022/05/23 00:11:47;;;;;;;2.55;1.55;;;;;;;;;;5019697;28;20037;-74
2022/05/23 00:14:12;;;;;;;2.08;1.50;;;;;;;;;;5017183;28;20023;-74
2022/05/23 00:16:41;;;;;;;2.15;1.30;;;;;;;;;;5001013;28;20215;-74
2022/05/23 00:19:09;;;;;;;2.92;1.40;;;;;;;;;;5009682;28;20492;-76
2022/05/23 00:21:35;;;;;;;2.03;1.52;;;;;;;;;;5010812;28;20042;-75
2022/05/23 00:24:00;;;;;;;1.80;1.63;;;;;;;;;;5029573;28;20022;-76
2022/05/23 00:26:27;;;;;;;2.33;1.50;;;;;;;;;;5028348;28;20503;-76
2022/05/23 00:28:53;;;;;;;2.80;1.77;;;;;;;;;;5027076;28;20025;-75
2022/05/23 00:31:18;;;;;;;2.40;1.63;;;;;;;;;;5026072;28;20044;-75
2022/05/23 00:36:33;;;;;;;3.33;1.88;;;;;;;;;;5017373;28;20222;-76
2022/05/23 00:38:59;;;;;;;2.85;1.70;;;;;;;;;;5022232;28;20119;-75
2022/05/23 00:44:12;;;;;;;8.52;2.00;;;;;;;;;;5010855;28;20133;-76
2022/05/23 00:46:49;;;;;;;2.70;1.80;;;;;;;;;;5007581;28;20145;-76
2022/05/23 00:49:24;;;;;;;2.92;1.80;;;;;;;;;;5029289;28;20032;-75
2022/05/23 00:51:50;;;;;;;2.55;1.63;;;;;;;;;;5029801;28;20029;-76
2022/05/23 00:54:15;;;;;;;2.72;1.80;;;;;;;;;;5029491;28;20040;-76
2022/05/23 00:56:44;;;;;;;2.92;1.65;;;;;;;;;;5023174;28;20037;-75
2022/05/23 00:59:14;;;;;;;4.00;2.17;;;;;;;;;;5028959;28;20021;-76
2022/05/23 01:01:40;;;;;;;3.30;1.80;;;;;;;;;;5025348;28;20036;-76
2022/05/23 01:04:06;;;;;;;4.35;1.90;;;;;;;;;;4998036;28;20030;-75
2022/05/23 01:06:33;;;;;;;1.98;1.40;;;;;;;;;;5008242;28;20042;-74
2022/05/23 01:08:58;;;;;;;1.85;1.52;;;;;;;;;;5010356;28;20026;-76
2022/05/23 01:11:25;;;;;;;1.95;1.55;;;;;;;;;;4997159;28;20028;-75
2022/05/23 01:13:53;;;;;;;1.85;1.65;;;;;;;;;;4997510;28;20034;-75
2022/05/23 01:16:20;;;;;;;3.38;1.95;;;;;;;;;;4997055;28;20029;-74
2022/05/23 01:18:45;;;;;;;1.77;1.65;;;;;;;;;;5022733;28;20048;-76
2022/05/23 01:21:22;;;;;;;1.77;1.42;;;;;;;;;;5014066;28;20462;-76
2022/05/23 01:23:54;;;;;;;4.07;1.52;;;;;;;;;;4999321;28;20041;-76
2022/05/23 01:26:20;;;;;;;2.83;1.55;;;;;;;;;;4995720;28;20454;-76
2022/05/23 01:28:45;;;;;;;2.45;1.63;;;;;;;;;;5019914;28;20045;-75
2022/05/23 01:31:12;;;;;;;2.33;1.50;;;;;;;;;;5009506;28;20030;-76
2022/05/23 01:33:39;;;;;;;2.92;1.80;;;;;;;;;;4989851;28;20030;-73
2022/05/23 01:36:05;;;;;;;3.47;1.40;;;;;;;;;;4989344;28;20034;-75
2022/05/23 01:38:30;;;;;;;2.10;1.50;;;;;;;;;;5023263;28;20495;-75
2022/05/23 01:40:57;;;;;;;2.03;1.60;;;;;;;;;;5028524;28;20029;-75
2022/05/23 01:43:23;;;;;;;2.10;1.50;;;;;;;;;;5029278;28;20040;-76
2022/05/23 01:45:48;;;;;;;1.90;1.65;;;;;;;;;;5028581;28;20067;-75
2022/05/23 01:48:14;;;;;;;1.67;1.58;;;;;;;;;;5023974;28;20044;-77
2022/05/23 01:50:39;;;;;;;3.05;1.88;;;;;;;;;;5026615;28;20025;-78
2022/05/23 01:53:05;;;;;;;4.43;1.73;;;;;;;;;;5013141;28;20029;-76
2022/05/23 01:55:31;;;;;;;3.72;1.63;;;;;;;;;;5019561;28;20025;-76
2022/05/23 01:57:56;;;;;;;4.07;1.80;;;;;;;;;;5020874;28;20490;-75
2022/05/23 02:03:06;;;;;;;2.65;1.50;;;;;;;;;;5028564;28;20090;-76
2022/05/23 02:05:36;;;;;;;2.83;1.70;;;;;;;;;;5029653;28;20029;-77
2022/05/23 02:08:01;;;;;;;1.80;1.45;;;;;;;;;;5024861;28;20096;-76
2022/05/23 02:10:27;;;;;;;3.60;1.75;;;;;;;;;;5026988;28;20132;-76
2022/05/23 02:12:53;;;;;;;3.40;1.52;;;;;;;;;;5028993;28;20079;-76
2022/05/23 02:15:19;;;;;;;2.20;1.50;;;;;;;;;;5019425;28;20113;-76
2022/05/23 02:17:44;;;;;;;1.85;1.65;;;;;;;;;;5018705;28;20040;-75
2022/05/23 02:20:11;;;;;;;3.28;1.50;;;;;;;;;;5006308;28;20019;-75
2022/05/23 02:22:37;;;;;;;3.35;2.10;;;;;;;;;;4987071;28;20073;-75
2022/05/23 02:25:04;;;;;;;2.53;1.77;;;;;;;;;;4993070;28;20464;-76
2022/05/23 02:27:30;;;;;;;2.08;1.60;;;;;;;;;;5025608;28;20033;-76
2022/05/23 02:29:56;;;;;;;2.65;1.90;;;;;;;;;;5028189;28;20044;-75
2022/05/23 02:32:21;;;;;;;4.03;1.70;;;;;;;;;;5028151;28;20543;-75
2022/05/23 02:34:47;;;;;;;3.30;1.98;;;;;;;;;;5026771;28;20073;-75
2022/05/23 02:37:12;;;;;;;3.40;2.00;;;;;;;;;;5027056;28;20030;-75
2022/05/23 02:39:37;;;;;;;2.72;1.80;;;;;;;;;;5031470;28;20429;-75
2022/05/23 02:42:03;;;;;;;3.90;1.85;;;;;;;;;;5032153;28;20025;-75
2022/05/23 02:44:29;;;;;;;2.08;1.70;;;;;;;;;;5030967;28;20017;-75
2022/05/23 02:46:55;;;;;;;3.08;1.90;;;;;;;;;;5024651;28;20398;-76
2022/05/23 02:49:21;;;;;;;3.80;1.92;;;;;;;;;;5031453;28;20057;-75
2022/05/23 02:51:46;;;;;;;2.78;1.92;;;;;;;;;;5031649;28;20049;-75
2022/05/23 02:54:11;;;;;;;4.70;1.90;;;;;;;;;;5031759;28;20098;-75
2022/05/23 02:56:37;;;;;;;2.22;1.80;;;;;;;;;;5015501;28;20045;-75
2022/05/23 02:59:03;;;;;;;2.60;2.08;;;;;;;;;;5023820;28;20026;-75
2022/05/23 03:01:29;;;;;;;2.00;1.65;;;;;;;;;;5029042;28;20029;-75
2022/05/23 03:03:54;;;;;;;2.88;1.80;;;;;;;;;;5031610;28;20504;-75
2022/05/23 03:06:20;;;;;;;4.03;1.83;;;;;;;;;;5031478;28;20033;-75
2022/05/23 03:08:46;;;;;;;1.95;1.75;;;;;;;;;;5025131;28;20030;-75
2022/05/23 03:11:12;;;;;;;2.40;2.05;;;;;;;;;;5021962;28;20036;-75
2022/05/23 03:13:37;;;;;;;5.75;2.10;;;;;;;;;;5031467;28;20121;-76
2022/05/23 03:16:08;;;;;;;2.97;1.83;;;;;;;;;;5031909;28;20617;-76
2022/05/23 03:18:33;;;;;;;4.10;1.75;;;;;;;;;;5020714;28;20499;-76
2022/05/23 03:21:07;;;;;;;3.05;2.10;;;;;;;;;;5025071;28;20021;-76
2022/05/23 03:29:05;;;;;;;2.70;1.90;;;;;;;;;;5020052;28;20048;-75
2022/05/23 03:31:31;;;;;;;3.42;1.85;;;;;;;;;;5031545;28;20482;-75
2022/05/23 03:33:56;;;;;;;2.83;1.95;;;;;;;;;;5031292;28;20028;-74
2022/05/23 03:36:22;;;;;;;3.92;2.15;;;;;;;;;;5031354;28;20025;-74
2022/05/23 03:38:48;;;;;;;3.25;1.90;;;;;;;;;;5021996;28;20025;-74
2022/05/23 03:41:13;;;;;;;3.55;2.40;;;;;;;;;;5030667;28;20394;-73
2022/05/23 03:43:38;;;;;;;3.67;2.47;;;;;;;;;;5030800;28;20057;-74
2022/05/23 03:46:14;;;;;;;2.08;1.95;;;;;;;;;;5030057;28;20029;-73
2022/05/23 03:48:40;;;;;;;4.47;2.00;;;;;;;;;;5027920;28;20443;-71
2022/05/23 03:51:06;;;;;;;4.25;2.22;;;;;;;;;;5030400;28;20032;-73
2022/05/23 03:53:32;;;;;;;4.13;2.22;;;;;;;;;;5030258;28;20052;-72
2022/05/23 03:55:58;;;;;;;4.10;2.53;;;;;;;;;;5030686;28;20471;-72
2022/05/23 03:58:25;;;;;;;3.70;2.30;;;;;;;;;;5020091;28;20025;-72
2022/05/23 04:00:50;;;;;;;6.40;2.20;;;;;;;;;;5030203;28;20529;-72
2022/05/23 04:03:19;;;;;;;3.85;2.30;;;;;;;;;;5030331;28;20025;-73
2022/05/23 04:05:45;;;;;;;2.72;2.50;;;;;;;;;;5030126;28;20056;-70
2022/05/23 04:08:11;;;;;;;4.45;2.30;;;;;;;;;;5025706;28;20025;-72
2022/05/23 04:10:39;;;;;;;5.97;3.10;;;;;;;;;;5030020;28;20032;-71
2022/05/23 04:13:05;;;;;;;3.53;2.20;;;;;;;;;;5029765;28;20479;-72
2022/05/23 04:15:31;;;;;;;3.58;2.10;;;;;;;;;;5029829;28;20133;-72
2022/05/23 04:17:56;;;;;;;4.30;2.33;;;;;;;;;;5025713;28;20169;-73
2022/05/23 04:20:22;;;;;;;2.80;2.10;;;;;;;;;;5029739;28;20045;-71
2022/05/23 04:22:47;;;;;;;3.35;2.20;;;;;;;;;;5029858;28;20037;-71
2022/05/23 04:25:13;;;;;;;4.90;2.70;;;;;;;;;;5029834;28;20021;-73
2022/05/23 04:27:38;;;;;;;2.47;2.20;;;;;;;;;;5027409;28;20490;-73
2022/05/23 04:30:06;;;;;;;5.10;2.33;;;;;;;;;;5029316;28;20032;-73
2022/05/23 04:35:16;;;;;;;2.33;2.10;;;;;;;;;;5030600;28;20036;-77
2022/05/23 04:37:45;;;;;;;3.45;2.20;;;;;;;;;;5026564;28;20134;-76
2022/05/23 04:40:12;;;;;;;4.07;2.30;;;;;;;;;;5031235;28;20029;-81
2022/05/23 04:42:38;;;;;;;4.43;2.75;;;;;;;;;;5031685;28;20056;-76
2022/05/23 04:45:04;;;;;;;6.05;2.55;;;;;;;;;;5031133;28;20057;-77
2022/05/23 04:50:13;;;;;;;3.67;2.35;;;;;;;;;;5031407;28;20156;-77
2022/05/23 04:52:38;;;;;;;3.17;2.45;;;;;;;;;;5033045;28;20463;-78
2022/05/23 04:55:04;;;;;;;2.97;2.28;;;;;;;;;;5031558;28;20475;-75
2022/05/23 04:57:31;;;;;;;3.13;2.30;;;;;;;;;;5022370;28;20040;-76
2022/05/23 04:59:56;;;;;;;3.20;2.10;;;;;;;;;;5029912;28;20029;-76
2022/05/23 05:02:21;;;;;;;3.10;2.40;;;;;;;;;;5030399;28;20079;-77
2022/05/23 05:04:47;;;;;;;5.28;2.70;;;;;;;;;;5027069;28;20406;-77
2022/05/23 05:07:12;;;;;;;4.45;2.63;;;;;;;;;;5025791;28;20025;-76
2022/05/23 05:09:37;;;;;;;3.72;2.50;;;;;;;;;;5030280;28;20120;-77
2022/05/23 05:12:04;;;;;;;4.72;2.50;;;;;;;;;;5026795;28;20021;-78
2022/05/23 05:14:30;;;;;;;3.05;2.47;;;;;;;;;;5031343;28;20445;-76
2022/05/23 05:16:55;;;;;;;3.97;2.78;;;;;;;;;;5027667;28;20033;-74
2022/05/23 05:19:21;;;;;;;5.47;2.60;;;;;;;;;;5028718;28;20192;-75
2022/05/23 05:21:46;;;;;;;4.13;2.60;;;;;;;;;;5014280;28;20029;-76
2022/05/23 05:24:12;;;;;;;5.70;2.70;;;;;;;;;;5007137;28;20018;-75
2022/05/23 05:26:37;;;;;;;4.38;2.33;;;;;;;;;;5011974;28;20526;-75
2022/05/23 05:29:04;;;;;;;4.55;2.63;;;;;;;;;;5010425;28;20105;-76
2022/05/23 05:31:40;;;;;;;4.32;3.13;;;;;;;;;;5023680;28;20425;-77
2022/05/23 05:34:11;;;;;;;3.55;2.55;;;;;;;;;;5018318;28;20014;-78
2022/05/23 05:36:41;;;;;;;4.75;2.70;;;;;;;;;;5008971;28;20117;-75
2022/05/23 05:39:08;;;;;;;4.18;2.50;;;;;;;;;;5002670;28;20022;-75
2022/05/23 05:41:41;;;;;;;3.17;2.10;;;;;;;;;;5000520;28;20037;-75
2022/05/23 05:44:11;;;;;;;3.80;2.33;;;;;;;;;;5026797;28;20090;-75
2022/05/23 05:46:40;;;;;;;5.97;2.83;;;;;;;;;;5023633;28;20029;-76
2022/05/23 05:49:11;;;;;;;7.82;3.05;;;;;;;;;;5010952;28;20067;-75
2022/05/23 05:51:38;;;;;;;3.72;2.00;;;;;;;;;;5000588;28;20045;-76
2022/05/23 05:54:07;;;;;;;2.38;1.80;;;;;;;;;;4994534;28;20022;-75
2022/05/23 05:56:33;;;;;;;3.70;2.90;;;;;;;;;;5004324;28;20025;-75
2022/05/23 05:58:58;;;;;;;3.90;1.88;;;;;;;;;;5003244;28;20399;-75
2022/05/23 06:01:24;;;;;;;4.10;2.00;;;;;;;;;;5004057;28;20130;-75
2022/05/23 06:03:50;;;;;;;4.20;1.95;;;;;;;;;;5008827;28;20022;-77
2022/05/23 06:11:43;;;;;;;3.85;1.70;;;;;;;;;;5028724;28;20079;-79
2022/05/23 06:14:08;;;;;;;2.10;1.90;;;;;;;;;;5006053;28;20533;-76
2022/05/23 06:16:36;;;;;;;2.83;2.00;;;;;;;;;;4999686;28;20662;-76
2022/05/23 06:19:01;;;;;;;3.00;2.20;;;;;;;;;;4999913;28;20472;-77
2022/05/23 06:21:28;;;;;;;4.30;2.25;;;;;;;;;;5001103;28;20038;-77
2022/05/23 06:23:53;;;;;;;4.03;2.25;;;;;;;;;;4999997;28;20014;-77
2022/05/23 06:26:21;;;;;;;2.53;2.08;;;;;;;;;;5002126;28;20052;-77
2022/05/23 06:28:47;;;;;;;4.55;2.30;;;;;;;;;;4998865;28;20087;-76
2022/05/23 06:31:13;;;;;;;4.78;2.17;;;;;;;;;;4992573;28;20183;-76
2022/05/23 06:33:38;;;;;;;4.15;2.10;;;;;;;;;;5002197;28;20520;-76
2022/05/23 06:36:05;;;;;;;3.83;2.33;;;;;;;;;;5003544;28;20033;-75
2022/05/23 06:38:31;;;;;;;3.35;2.30;;;;;;;;;;5006885;28;20041;-76
2022/05/23 06:40:57;;;;;;;3.90;1.70;;;;;;;;;;4992179;28;20030;-75
2022/05/23 06:43:22;;;;;;;2.72;2.13;;;;;;;;;;4998093;28;20033;-74
2022/05/23 06:45:48;;;;;;;3.38;1.98;;;;;;;;;;4987995;28;20670;-75
2022/05/23 06:48:14;;;;;;;4.47;1.98;;;;;;;;;;4999387;28;20407;-75
2022/05/23 06:50:40;;;;;;;3.55;1.80;;;;;;;;;;4999404;28;20113;-71
2022/05/23 06:53:05;;;;;;;2.95;2.10;;;;;;;;;;4995636;28;20141;-73
2022/05/23 06:55:30;;;;;;;5.72;1.75;;;;;;;;;;4988456;28;20065;-75
2022/05/23 06:57:56;;;;;;;4.53;1.92;;;;;;;;;;4985522;28;20030;-72
2022/05/23 07:00:21;;;;;;;4.20;2.00;;;;;;;;;;4983201;28;20061;-75
2022/05/23 07:02:47;;;;;;;2.75;1.73;;;;;;;;;;4991626;28;20025;-73
2022/05/23 07:13:25;;;;;;;4.70;2.08;;;;;;;;;;5000649;28;20033;-73
2022/05/23 07:15:51;;;;;;;4.60;2.15;;;;;;;;;;4996821;28;20026;-73
2022/05/23 07:18:18;;;;;;;4.22;2.30;;;;;;;;;;4991009;28;20503;-75
2022/05/23 07:20:44;;;;;;;4.20;2.08;;;;;;;;;;4997053;28;20124;-74
2022/05/23 07:23:10;;;;;;;3.63;1.90;;;;;;;;;;4999395;28;20420;-75
2022/05/23 07:25:36;;;;;;;3.90;2.00;;;;;;;;;;5003102;28;20022;-74
2022/05/23 07:28:01;;;;;;;3.63;2.00;;;;;;;;;;5000106;28;20070;-74
2022/05/23 07:30:28;;;;;;;3.80;1.95;;;;;;;;;;4986359;28;20049;-74
2022/05/23 07:32:54;;;;;;;5.25;2.13;;;;;;;;;;4995072;28;20030;-74
2022/05/23 07:35:19;;;;;;;1.98;1.80;;;;;;;;;;4999139;28;20060;-73
2022/05/23 07:37:44;;;;;;;2.35;2.05;;;;;;;;;;4994221;28;20042;-76
2022/05/23 07:40:11;;;;;;;2.80;1.88;;;;;;;;;;4987578;28;20072;-77
2022/05/23 07:42:36;;;;;;;4.78;1.80;;;;;;;;;;4993379;28;20109;-75
2022/05/23 07:45:03;;;;;;;4.20;1.65;;;;;;;;;;5000352;28;20102;-73
2022/05/23 07:47:29;;;;;;;3.25;1.60;;;;;;;;;;4989860;28;20030;-72
2022/05/23 07:49:54;;;;;;;3.17;1.83;;;;;;;;;;4987379;28;20026;-73
2022/05/23 07:52:20;;;;;;;2.55;1.80;;;;;;;;;;4996355;28;20037;-72
2022/05/23 08:03:05;;;;;;;3.58;1.75;;;;;;;;;;5006585;28;20057;-73
2022/05/23 08:05:31;;;;;;;3.80;1.60;;;;;;;;;;4998035;28;20446;-73
2022/05/23 08:07:56;;;;;;;2.50;1.63;;;;;;;;;;5005119;28;20017;-73
2022/05/23 08:10:22;;;;;;;2.25;1.80;;;;;;;;;;5005930;28;20330;-73
2022/05/23 08:12:52;;;;;;;2.72;1.95;;;;;;;;;;4995734;28;20022;-73
2022/05/23 08:15:19;;;;;;;4.57;1.90;;;;;;;;;;4998435;28;20038;-73
2022/05/23 08:17:44;;;;;;;3.13;1.55;;;;;;;;;;4987269;28;20339;-73
2022/05/23 08:20:10;;;;;;;3.22;1.58;;;;;;;;;;4992480;28;20507;-74
2022/05/23 08:22:35;;;;;;;4.10;1.60;;;;;;;;;;5006217;28;20056;-73
2022/05/23 08:25:01;;;;;;;1.40;1.30;;;;;;;;;;5006187;28;20342;-74
2022/05/23 08:27:26;;;;;;;2.57;1.37;;;;;;;;;;4991575;28;20345;-73
2022/05/23 08:29:53;;;;;;;2.03;1.23;;;;;;;;;;5006674;28;20621;-74
2022/05/23 08:32:20;;;;;;;1.75;1.00;;;;;;;;;;5001977;28;20279;-73
2022/05/23 08:34:47;;;;;;;2.28;1.38;;;;;;;;;;4995406;28;20400;-74
2022/05/23 08:37:13;;;;;;;2.83;1.35;;;;;;;;;;4994393;28;20030;-74
2022/05/23 08:39:38;;;;;;;1.77;1.20;;;;;;;;;;4993747;28;20038;-74
2022/05/23 08:42:15;;;;;;;2.15;1.55;;;;;;;;;;4989322;28;20080;-73
2022/05/23 08:44:46;;;;;;;2.20;1.30;;;;;;;;;;5001813;28;20034;-72
2022/05/23 08:47:20;;;;;;;2.67;1.55;;;;;;;;;;4990787;28;20061;-75
2022/05/23 08:49:59;;;;;;;3.28;1.30;;;;;;;;;;4989034;28;20083;-73
2022/05/23 08:53:01;;;;;;;2.88;1.27;;;;;;;;;;5006425;28;20107;-73
2022/05/23 08:55:39;;;;;;;2.22;1.30;;;;;;;;;;4997050;28;20022;-74
2022/05/23 08:58:10;;;;;;;2.33;1.70;;;;;;;;;;4995133;28;20115;-74
2022/05/23 09:00:42;;;;;;;1.50;1.30;;;;;;;;;;4996050;28;20046;-74
2022/05/23 09:03:20;;;;;;;1.98;1.20;;;;;;;;;;5000451;28;20022;-74
2022/05/23 09:05:55;;;;;;;2.67;1.23;;;;;;;;;;5002318;28;20055;-73
2022/05/23 09:08:24;;;;;;;2.35;1.13;;;;;;;;;;4993154;28;20449;-74
2022/05/23 09:11:00;;;;;;;3.15;1.45;;;;;;;;;;5002126;28;20022;-73
2022/05/23 09:13:27;;;;;;;1.63;1.38;;;;;;;;;;4996163;28;20089;-72
2022/05/23 09:15:59;;;;;;;1.60;1.35;;;;;;;;;;5005726;28;20455;-73
2022/05/23 09:18:30;;;;;;;3.65;1.70;;;;;;;;;;5005288;28;20388;-73
2022/05/23 09:21:01;;;;;;;1.67;1.40;;;;;;;;;;5005277;28;20029;-73
2022/05/23 09:23:35;;;;;;;;;;;;;;;;;;5004586;28;20021;-73
2022/05/23 09:26:03;;;;;;;2.63;1.38;;;;;;;;;;4994935;28;19968;-73
2022/05/23 09:28:34;;;;;;;4.75;1.80;;;;;;;;;;4992348;28;20262;-72
2022/05/23 09:31:02;;;;;;;4.60;1.70;;;;;;;;;;5004801;28;20068;-72
2022/05/23 09:33:30;;;;;;;4.57;1.80;;;;;;;;;;4997085;28;20246;-73
2022/05/23 09:36:09;;;;;;;3.78;1.42;;;;;;;;;;5005316;28;20101;-73
2022/05/23 09:38:53;;;;;;;2.28;1.88;;;;;;;;;;4996574;28;20508;-72
2022/05/23 09:49:53;;;;;;;6.32;1.90;;;;;;;;;;5001203;28;20045;-72
2022/05/23 09:52:32;;;;;;;2.22;1.70;;;;;;;;;;4984120;28;20030;-74
2022/05/23 09:55:00;;;;;;;6.55;2.00;;;;;;;;;;4998603;28;20204;-73
2022/05/23 09:57:32;;;;;;;4.05;2.00;;;;;;;;;;4992998;28;20026;-73
2022/05/23 10:00:17;;;;;;;6.70;2.50;;;;;;;;;;4990603;28;20036;-72
2022/05/23 10:02:51;;;;;;;4.82;1.80;;;;;;;;;;4990998;28;20112;-72
2022/05/23 10:05:30;;;;;;;6.28;2.30;;;;;;;;;;4991329;28;20547;-73
2022/05/23 10:08:28;;;;;;;5.47;1.92;;;;;;;;;;4995919;28;20026;-72
2022/05/23 10:10:59;;;;;;;5.20;2.05;;;;;;;;;;4988011;28;20042;-71
2022/05/23 10:13:30;;;;;;;7.13;2.55;;;;;;;;;;5001320;28;20041;-71
2022/05/23 10:15:58;;;;;;;3.67;2.30;;;;;;;;;;5004951;28;20500;-73
2022/05/23 10:18:27;;;;;;;3.75;1.98;;;;;;;;;;5003913;28;20506;-73
2022/05/23 10:20:53;;;;;;;3.80;1.83;;;;;;;;;;5004635;28;20395;-73
2022/05/23 10:23:22;;;;;;;3.85;2.00;;;;;;;;;;5004969;28;20029;-72
2022/05/23 10:25:58;;;;;;;3.92;1.98;;;;;;;;;;5002114;28;20037;-72
2022/05/23 10:28:50;;;;;;;6.05;1.90;;;;;;;;;;5003911;28;20173;-72
2022/05/23 10:31:32;;;;;;;4.00;2.00;;;;;;;;;;4994096;28;20056;-76
2022/05/23 10:34:16;;;;;;;4.07;1.83;;;;;;;;;;4996427;28;20504;-72
2022/05/23 10:36:47;;;;;;;4.43;2.10;;;;;;;;;;4982502;28;20026;-72
2022/05/23 10:42:15;;;;;;;7.38;2.20;;;;;;;;;;4985463;28;20152;-72
2022/05/23 10:44:57;;;;;;;3.38;2.05;;;;;;;;;;4984368;28;20560;-72
2022/05/23 10:47:48;;;;;;;5.03;2.00;;;;;;;;;;4985178;28;20480;-72
2022/05/23 10:50:20;;;;;;;2.72;1.70;;;;;;;;;;4985169;28;20022;-73
2022/05/23 10:52:53;;;;;;;;;;;;;;;;;;4984553;28;20034;-75
2022/05/23 10:55:30;;;;;;;8.98;2.05;;;;;;;;;;4987273;28;19949;-71
2022/05/23 10:58:19;;;;;;;5.72;2.05;;;;;;;;;;4989278;28;20329;-72
2022/05/23 11:00:57;;;;;;;6.38;2.00;;;;;;;;;;4988818;28;20038;-73
2022/05/23 11:03:56;;;;;;;4.90;2.08;;;;;;;;;;4989474;28;20030;-76
2022/05/23 11:06:34;;;;;;;4.38;1.95;;;;;;;;;;5007216;28;20068;-73
2022/05/23 11:08:59;;;;;;;3.25;2.30;;;;;;;;;;5007973;28;20033;-72
2022/05/23 11:11:43;;;;;;;3.92;2.03;;;;;;;;;;5007962;28;20416;-73
2022/05/23 11:14:28;;;;;;;6.32;2.40;;;;;;;;;;5006710;28;20052;-73
2022/05/23 11:17:06;;;;;;;10.90;2.70;;;;;;;;;;5008487;28;20025;-73
2022/05/23 11:20:19;;;;;;;8.60;2.08;;;;;;;;;;5007918;28;20033;-72
2022/05/23 11:22:56;;;;;;;2.97;2.15;;;;;;;;;;5004354;28;20048;-73
2022/05/23 11:25:26;;;;;;;6.20;2.25;;;;;;;;;;5005512;28;20033;-71
2022/05/23 11:33:44;;;;;;;6.18;2.08;;;;;;;;;;4987729;28;20041;-72
2022/05/23 11:36:10;;;;;;;5.80;2.78;;;;;;;;;;4987724;28;20190;-71
2022/05/23 11:38:47;;;;;;;6.97;2.30;;;;;;;;;;4985556;28;20515;-71
2022/05/23 11:41:41;;;;;;;7.80;3.00;;;;;;;;;;4995899;28;20076;-72
2022/05/23 11:44:41;;;;;;;5.32;2.08;;;;;;;;;;5002695;28;20431;-71
2022/05/23 11:47:21;;;;;;;3.70;1.95;;;;;;;;;;4986472;28;20026;-71
2022/05/23 11:49:58;;;;;;;6.93;2.22;;;;;;;;;;4993007;28;20033;-71
2022/05/23 11:52:30;;;;;;;6.03;2.63;;;;;;;;;;4991478;28;20018;-72
2022/05/23 11:54:56;;;;;;;4.25;2.53;;;;;;;;;;4999624;28;20026;-72
2022/05/23 11:57:37;;;;;;;6.55;2.45;;;;;;;;;;5005785;28;20083;-71
2022/05/23 12:00:31;;;;;;;4.82;2.50;;;;;;;;;;4999491;28;20065;-72
2022/05/23 12:03:23;;;;;;;6.35;2.53;;;;;;;;;;4995585;28;20034;-74
2022/05/23 12:06:18;;;;;;;4.45;1.80;;;;;;;;;;4988084;28;20235;-73
2022/05/23 12:09:12;;;;;;;4.47;2.33;;;;;;;;;;4987806;28;20515;-73
2022/05/23 12:11:43;;;;;;;4.75;2.28;;;;;;;;;;4990734;28;20046;-72
2022/05/23 12:14:11;;;;;;;2.55;1.88;;;;;;;;;;5001004;28;20069;-75
2022/05/23 12:16:43;;;;;;;3.58;2.03;;;;;;;;;;4993752;28;20585;-71
2022/05/23 12:19:24;;;;;;;4.20;2.53;;;;;;;;;;4987417;28;20034;-73
2022/05/23 12:21:50;;;;;;;6.18;2.65;;;;;;;;;;4997456;28;20074;-74
2022/05/23 12:24:29;;;;;;;4.65;2.28;;;;;;;;;;5000130;28;20113;-73
2022/05/23 12:26:57;;;;;;;5.18;2.30;;;;;;;;;;5004807;28;20795;-71
2022/05/23 12:29:34;;;;;;;6.43;2.40;;;;;;;;;;4998167;28;20182;-73
2022/05/23 12:32:11;;;;;;;6.93;2.30;;;;;;;;;;4991445;28;20033;-71
2022/05/23 12:34:43;;;;;;;6.30;2.35;;;;;;;;;;5002353;28;20100;-73
2022/05/23 12:37:19;;;;;;;4.15;2.50;;;;;;;;;;4990819;28;20254;-71
2022/05/23 12:40:07;;;;;;;4.97;2.40;;;;;;;;;;5005314;28;20404;-74
2022/05/23 12:43:14;;;;;;;3.03;2.30;;;;;;;;;;4993342;28;20109;-73
2022/05/23 12:46:09;;;;;;;7.13;2.90;;;;;;;;;;4959413;28;20097;-74
2022/05/23 12:48:40;;;;;;;7.47;2.50;;;;;;;;;;4981529;28;20061;-76
2022/05/23 12:51:21;;;;;;;9.13;2.92;;;;;;;;;;4993852;28;20030;-75
2022/05/23 12:54:08;;;;;;;6.70;2.53;;;;;;;;;;4996837;28;20026;-75
2022/05/23 12:57:09;;;;;;;7.00;2.40;;;;;;;;;;5004747;28;20026;-75
2022/05/23 12:59:53;;;;;;;5.13;2.40;;;;;;;;;;4995030;28;20061;-74
2022/05/23 13:02:47;;;;;;;5.55;2.83;;;;;;;;;;4994588;28;20117;-74
2022/05/23 13:05:17;;;;;;;4.28;2.10;;;;;;;;;;4999073;28;20032;-76
2022/05/23 13:07:47;;;;;;;3.67;2.45;;;;;;;;;;5003003;28;20030;-70
2022/05/23 13:10:34;;;;;;;7.25;2.85;;;;;;;;;;4995644;28;20459;-77
2022/05/23 13:12:59;;;;;;;4.03;2.40;;;;;;;;;;4987518;28;20468;-73
2022/05/23 13:15:30;;;;;;;6.60;2.50;;;;;;;;;;4992078;28;20384;-74
2022/05/23 13:22:05;;;;;;;10.97;2.80;;;;;;;;;;4985180;28;20030;-76
2022/05/23 13:23:29;;;;;;;3.80;2.20;;;;;;;;;;4997474;28;20356;-74
2022/05/23 13:25:56;;;;;;;3.88;2.40;;;;;;;;;;5006024;28;20182;-73
2022/05/23 13:28:22;;;;;;;5.00;2.22;;;;;;;;;;5002547;28;20372;-75
2022/05/23 13:30:54;;;;;;;4.03;2.47;;;;;;;;;;5000522;28;20054;-73
2022/05/23 13:33:22;;;;;;;5.05;2.55;;;;;;;;;;4996327;28;20021;-78
2022/05/23 13:35:55;;;;;;;5.35;2.85;;;;;;;;;;4986581;28;20089;-75
2022/05/23 13:38:24;;;;;;;8.10;2.42;;;;;;;;;;5001042;28;20036;-72
2022/05/23 13:40:56;;;;;;;3.55;2.35;;;;;;;;;;5002287;28;20037;-76
2022/05/23 13:43:44;;;;;;;5.38;2.65;;;;;;;;;;4990248;28;20109;-73
2022/05/23 13:46:09;;;;;;;8.45;2.83;;;;;;;;;;4993736;28;20022;-78
2022/05/23 13:48:44;;;;;;;6.50;2.63;;;;;;;;;;4987158;28;20064;-72
2022/05/23 13:51:16;;;;;;;4.80;2.45;;;;;;;;;;4992412;28;20337;-76
2022/05/23 13:53:47;;;;;;;6.40;2.90;;;;;;;;;;4996871;28;20022;-73
2022/05/23 13:56:13;;;;;;;7.72;3.17;;;;;;;;;;4992933;28;20038;-73
2022/05/23 13:58:47;;;;;;;8.90;3.05;;;;;;;;;;4990376;28;20023;-75
2022/05/23 14:01:28;;;;;;;7.32;2.65;;;;;;;;;;4993874;28;20030;-73
2022/05/23 14:04:05;;;;;;;4.60;2.53;;;;;;;;;;4984302;28;20031;-73
2022/05/23 14:06:40;;;;;;;8.43;2.53;;;;;;;;;;4991087;28;20034;-74
2022/05/23 14:09:07;;;;;;;6.03;2.38;;;;;;;;;;4994447;28;20072;-74
2022/05/23 14:11:36;;;;;;;7.10;2.60;;;;;;;;;;4996176;28;20022;-74
2022/05/23 14:14:38;;;;;;;6.20;2.60;;;;;;;;;;4999912;28;20484;-75
2022/05/23 14:17:17;;;;;;;7.93;2.38;;;;;;;;;;4992777;28;20033;-75
2022/05/23 14:19:46;;;;;;;9.55;2.38;;;;;;;;;;4991057;28;20129;-75
2022/05/23 14:22:30;;;;;;;6.63;2.65;;;;;;;;;;4990702;28;20026;-75
2022/05/23 14:25:01;;;;;;;4.57;2.45;;;;;;;;;;4985759;28;20468;-74
2022/05/23 14:27:31;;;;;;;4.75;3.03;;;;;;;;;;4985805;28;20461;-77
2022/05/23 14:30:29;;;;;;;4.38;2.75;;;;;;;;;;4993993;28;20068;-77
2022/05/23 14:33:00;;;;;;;8.98;4.75;;;;;;;;;;4999676;28;20034;-73
2022/05/23 14:35:51;;;;;;;9.40;3.60;;;;;;;;;;4992501;28;20026;-73
2022/05/23 14:38:49;;;;;;;8.50;2.78;;;;;;;;;;4992142;28;20176;-73
2022/05/23 14:41:26;;;;;;;4.55;2.60;;;;;;;;;;4973619;28;20436;-76
2022/05/23 14:44:15;;;;;;;8.00;2.88;;;;;;;;;;5000158;28;20022;-76
2022/05/23 14:46:59;;;;;;;7.80;2.72;;;;;;;;;;4998764;28;20031;-77
2022/05/23 14:49:34;;;;;;;8.23;2.90;;;;;;;;;;4993496;28;20102;-75
2022/05/23 14:52:20;;;;;;;7.22;2.28;;;;;;;;;;4989663;28;20472;-74
2022/05/23 15:00:37;;;;;;;8.05;3.35;;;;;;;;;;5011243;28;20041;-73
2022/05/23 15:03:07;;;;;;;10.80;3.95;;;;;;;;;;5002477;28;20097;-78
2022/05/23 15:05:32;;;;;;;10.30;3.90;;;;;;;;;;5027123;28;20125;-74
2022/05/23 15:08:00;;;;;;;9.27;3.17;;;;;;;;;;5017760;28;20577;-72
2022/05/23 15:10:26;;;;;;;7.25;3.10;;;;;;;;;;5023013;28;20120;-73
2022/05/23 15:12:51;;;;;;;7.32;3.20;;;;;;;;;;5020881;28;20116;-74
2022/05/23 15:15:18;;;;;;;8.32;3.13;;;;;;;;;;5030392;28;20021;-73
2022/05/23 15:17:44;;;;;;;5.95;2.85;;;;;;;;;;5007647;28;20084;-74
2022/05/23 15:20:10;;;;;;;3.90;2.67;;;;;;;;;;4998987;28;20432;-72
2022/05/23 15:22:36;;;;;;;5.45;2.75;;;;;;;;;;5000285;28;20036;-74
2022/05/23 15:25:02;;;;;;;5.90;2.22;;;;;;;;;;5011345;28;20041;-74
2022/05/23 15:27:30;;;;;;;3.33;1.83;;;;;;;;;;5004491;28;20032;-74
2022/05/23 15:30:00;;;;;;;1.80;1.27;;;;;;;;;;5004356;28;20029;-77
2022/05/23 15:32:26;;;;;;;3.75;1.63;;;;;;;;;;5030637;28;20529;-77
2022/05/23 15:34:51;;;;;;;4.70;1.40;;;;;;;;;;5030677;28;20061;-73
2022/05/23 15:37:16;;;;;;;2.75;1.70;;;;;;;;;;5029650;28;20099;-76
2022/05/23 15:39:41;;;;;;;2.80;1.23;;;;;;;;;;5030405;28;20327;-76
2022/05/23 15:42:12;;;;;;;4.07;1.35;;;;;;;;;;5030828;28;20533;-77
2022/05/23 15:44:38;;;;;;;6.82;1.85;;;;;;;;;;5028942;28;20022;-74
2022/05/23 15:47:07;;;;;;;3.83;1.52;;;;;;;;;;5030701;28;20022;-72
2022/05/23 15:49:33;;;;;;;3.33;1.75;;;;;;;;;;5030218;28;20542;-73
2022/05/23 15:52:01;;;;;;;3.53;1.48;;;;;;;;;;5029679;28;20137;-72
2022/05/23 15:54:27;;;;;;;5.93;1.73;;;;;;;;;;5007811;28;20383;-71
2022/05/23 15:56:53;;;;;;;4.43;1.67;;;;;;;;;;5009365;28;20117;-71
2022/05/23 15:59:19;;;;;;;5.20;1.88;;;;;;;;;;5010216;28;20113;-74
2022/05/23 16:01:45;;;;;;;3.85;1.60;;;;;;;;;;5010678;28;20026;-71
2022/05/23 16:04:13;;;;;;;3.40;1.70;;;;;;;;;;5010624;28;20029;-71
2022/05/23 16:06:39;;;;;;;4.35;1.40;;;;;;;;;;5010396;28;20025;-72
2022/05/23 16:09:04;;;;;;;3.33;1.45;;;;;;;;;;5010118;28;20033;-73
2022/05/23 16:11:37;;;;;;;3.40;1.83;;;;;;;;;;4997579;28;20464;-75